Terminal Aerodrome Forecast
Issued by NWS Omaha/Valley, NE

Home | Current Version | Previous Version | Graphics & Text | Print | Product List | Glossary On
Versions: 1 2 3 4 5 6 7 8 9 10 11 12 13 14 15 16 17 18 19 20
000
FTUS43 KOAX 240634 AAA
TAFOFK
TAF AMD
KOFK 240634Z 2407/2506 36012G23KT 2SM -SN BLSN SCT008 OVC015
      TEMPO 2408/2411 3/4SM -SN OVC008
     FM241800 34021G29KT 3SM -SN BLSN OVC015
     FM242000 34019G27KT 5SM BLSN OVC020
     FM250000 34013KT P6SM SCT035=

USA.gov is the U.S. government's official web portal to all federal, state and local government web resources and services.